Time;durP1;ratioP1;P1;durP2;ratioP2;P2;SDS_P1;SDS_P2;PMS_P1;PMS_P2;Temp;Humidity;BMP_temperature;BMP_pressure;BME280_temperature;BME280_humidity;BME280_pressure;Samples;Min_cycle;Max_cycle;Signal;HPM_P1;HPM_P2
2023/07/22 00:01:22;;;;;;;4.70;4.30;;;;;;;14.05;100.00;100835.02;105673;1257;71425;-41
2023/07/22 00:03:50;;;;;;;6.90;4.00;;;;;;;14.01;100.00;100841.17;105669;1255;60510;-41
2023/07/22 00:06:18;;;;;;;7.70;4.10;;;;;;;13.97;100.00;100848.23;105660;1260;59593;-41
2023/07/22 00:08:45;;;;;;;4.60;4.30;;;;;;;13.91;100.00;100851.16;105638;1254;71828;-41
2023/07/22 00:11:13;;;;;;;5.60;4.10;;;;;;;13.87;100.00;100860.29;105636;1254;63499;-42
2023/07/22 00:13:43;;;;;;;4.60;4.30;;;;;;;13.82;100.00;100861.47;105615;1258;70434;-41
2023/07/22 00:16:10;;;;;;;8.30;4.70;;;;;;;13.78;100.00;100861.20;105654;1257;59715;-41
2023/07/22 00:18:38;;;;;;;5.00;4.50;;;;;;;13.76;100.00;100860.38;105617;1260;59528;-41
2023/07/22 00:21:06;;;;;;;5.20;4.70;;;;;;;13.74;100.00;100860.98;105666;1254;71822;-41
2023/07/22 00:23:34;;;;;;;5.80;4.50;;;;;;;13.71;100.00;100868.16;105669;1259;64282;-41
2023/07/22 00:26:02;;;;;;;7.20;4.70;;;;;;;13.68;100.00;100868.91;105644;1260;72605;-41
2023/07/22 00:28:30;;;;;;;4.80;4.40;;;;;;;13.66;100.00;100864.64;105650;1260;60414;-41
2023/07/22 00:30:58;;;;;;;6.80;4.60;;;;;;;13.65;100.00;100861.88;105621;1254;59970;-46
2023/07/22 00:33:26;;;;;;;5.00;4.40;;;;;;;13.65;100.00;100859.80;105588;1254;71722;-42
2023/07/22 00:35:55;;;;;;;7.30;4.80;;;;;;;13.64;100.00;100857.05;105447;1260;64799;-44
2023/07/22 00:38:23;;;;;;;4.60;4.30;;;;;;;13.64;100.00;100857.23;105641;1256;71410;-43
2023/07/22 00:40:51;;;;;;;4.80;4.40;;;;;;;13.62;100.00;100861.42;105628;1260;61633;-41
2023/07/22 00:43:18;;;;;;;6.30;5.40;;;;;;;13.60;100.00;100865.84;105628;1260;59624;-41
2023/07/22 00:45:46;;;;;;;5.90;5.30;;;;;;;13.57;100.00;100861.02;105607;1259;72062;-41
2023/07/22 00:48:14;;;;;;;5.10;4.70;;;;;;;13.57;100.00;100857.75;105624;1259;64094;-41
2023/07/22 00:50:43;;;;;;;5.80;4.60;;;;;;;13.58;100.00;100857.91;105571;1257;71676;-41
2023/07/22 00:53:11;;;;;;;6.70;4.50;;;;;;;13.58;100.00;100861.36;105647;1257;61654;-41
2023/07/22 00:55:40;;;;;;;5.10;4.70;;;;;;;13.57;100.00;100864.67;105657;1254;60054;-41
2023/07/22 00:58:08;;;;;;;5.10;4.60;;;;;;;13.55;100.00;100857.96;105638;1254;71766;-41
2023/07/22 01:00:36;;;;;;;6.60;4.50;;;;;;;13.53;100.00;100845.87;105619;1260;65402;-41
2023/07/22 01:03:04;;;;;;;4.20;3.90;;;;;;;13.48;100.00;100840.26;105578;1260;71419;-41
2023/07/22 01:05:32;;;;;;;4.60;4.30;;;;;;;13.42;100.00;100842.13;105653;1260;60427;-41
2023/07/22 01:08:00;;;;;;;6.80;4.40;;;;;;;13.36;100.00;100843.11;105579;1254;59791;-41
2023/07/22 01:10:28;;;;;;;9.20;4.60;;;;;;;13.31;100.00;100844.80;105603;1254;71812;-41
2023/07/22 01:12:56;;;;;;;4.60;4.00;;;;;;;13.27;100.00;100842.13;105633;1254;65230;-41
2023/07/22 01:15:24;;;;;;;4.40;4.10;;;;;;;13.21;100.00;100846.06;105623;1254;70875;-41
2023/07/22 01:17:52;;;;;;;4.80;4.40;;;;;;;13.15;100.00;100849.15;105622;1255;60447;-41
2023/07/22 01:20:21;;;;;;;5.50;4.40;;;;;;;13.09;100.00;100850.67;105626;1254;59966;-41
2023/07/22 01:22:53;;;;;;;6.10;4.40;;;;;;;13.04;100.00;100856.34;105569;1263;71842;-45
2023/07/22 01:25:24;;;;;;;5.30;4.70;;;;;;;12.99;100.00;100857.66;105613;1259;64002;-43
2023/07/22 01:27:52;;;;;;;12.20;4.60;;;;;;;12.94;100.00;100858.63;105674;1254;72645;-43
2023/07/22 01:30:19;;;;;;;5.80;4.40;;;;;;;12.88;100.00;100866.89;105606;1259;60437;-43
2023/07/22 01:32:47;;;;;;;5.50;5.00;;;;;;;12.84;100.00;100866.47;105621;1260;59525;-40
2023/07/22 01:35:15;;;;;;;6.90;5.10;;;;;;;12.78;100.00;100870.73;105621;1260;73037;-41
2023/07/22 01:37:43;;;;;;;6.90;4.60;;;;;;;12.76;100.00;100873.39;105575;1260;64101;-41
2023/07/22 01:40:12;;;;;;;6.10;4.80;;;;;;;12.74;100.00;100877.23;105692;1254;72694;-41
2023/07/22 01:42:43;;;;;;;5.00;4.40;;;;;;;12.70;100.00;100878.17;105633;1257;59991;-40
2023/07/22 01:45:11;;;;;;;7.50;4.70;;;;;;;12.67;100.00;100888.10;105612;1260;59733;-41
2023/07/22 01:47:40;;;;;;;5.30;4.70;;;;;;;12.63;100.00;100898.73;105637;1260;72982;-41
2023/07/22 01:50:10;;;;;;;7.20;4.80;;;;;;;12.60;100.00;100896.89;105672;1254;63998;-41
2023/07/22 01:52:37;;;;;;;4.80;4.50;;;;;;;12.57;100.00;100894.53;105656;1254;72205;-41
2023/07/22 01:55:10;;;;;;;5.60;5.10;;;;;;;12.55;100.00;100892.34;105556;1261;60442;-41
2023/07/22 01:57:41;;;;;;;5.20;4.70;;;;;;;12.54;100.00;100886.83;105642;1260;59743;-41
2023/07/22 02:00:10;;;;;;;4.90;4.40;;;;;;;12.54;100.00;100887.69;105604;1254;70800;-41
2023/07/22 02:02:42;;;;;;;10.60;4.50;;;;;;;12.52;100.00;100877.33;105626;1260;65194;-41
2023/07/22 02:05:10;;;;;;;5.50;4.70;;;;;;;12.49;100.00;100873.56;105659;1254;72409;-41
2023/07/22 02:07:39;;;;;;;5.00;4.70;;;;;;;12.47;100.00;100874.14;105646;1254;61633;-41
2023/07/22 02:10:09;;;;;;;6.70;4.60;;;;;;;12.44;100.00;100868.84;105676;1254;60108;-41
2023/07/22 02:12:37;;;;;;;9.00;4.80;;;;;;;12.42;100.00;100868.86;105676;1257;72284;-41
2023/07/22 02:15:07;;;;;;;4.60;4.30;;;;;;;12.40;100.00;100872.54;105628;1255;64093;-41
2023/07/22 02:17:35;;;;;;;4.60;4.20;;;;;;;12.38;100.00;100869.98;105627;1254;72706;-41
2023/07/22 02:20:04;;;;;;;6.30;4.40;;;;;;;12.38;100.00;100871.72;105617;1257;60730;-41
2023/07/22 02:22:32;;;;;;;8.00;4.80;;;;;;;12.38;100.00;100875.01;105641;1254;59979;-41
2023/07/22 02:25:00;;;;;;;6.10;5.20;;;;;;;12.40;100.00;100872.38;105609;1254;72123;-41
2023/07/22 02:27:28;;;;;;;5.30;4.80;;;;;;;12.44;100.00;100864.84;105661;1260;64038;-41
2023/07/22 02:29:56;;;;;;;5.50;5.20;;;;;;;12.50;100.00;100860.76;105607;1260;71373;-41
2023/07/22 02:32:24;;;;;;;9.60;5.00;;;;;;;12.53;100.00;100863.64;105610;1260;61758;-41
2023/07/22 02:34:51;;;;;;;6.10;5.50;;;;;;;12.53;100.00;100863.30;105612;1254;59537;-41
2023/07/22 02:37:19;;;;;;;5.90;5.00;;;;;;;12.53;100.00;100864.00;105669;1255;73082;-41
2023/07/22 02:39:47;;;;;;;6.60;5.40;;;;;;;12.52;100.00;100860.55;105617;1255;64259;-40
2023/07/22 02:42:15;;;;;;;6.90;5.20;;;;;;;12.53;100.00;100861.38;105629;1260;72666;-41
2023/07/22 02:44:43;;;;;;;7.40;4.70;;;;;;;12.56;100.00;100864.45;105644;1255;60864;-41
2023/07/22 02:47:11;;;;;;;5.20;4.80;;;;;;;12.61;100.00;100861.73;105573;1260;59535;-41
2023/07/22 02:49:39;;;;;;;10.10;5.20;;;;;;;12.70;100.00;100858.44;105606;1254;72839;-42
2023/07/22 02:52:07;;;;;;;5.20;4.70;;;;;;;12.80;100.00;100853.22;105507;1254;65140;-42
2023/07/22 02:54:41;;;;;;;6.20;4.80;;;;;;;12.88;100.00;100846.45;105522;1256;71434;-44
2023/07/22 02:57:09;;;;;;;5.60;4.80;;;;;;;12.98;100.00;100845.04;105600;1260;60387;-42
2023/07/22 02:59:37;;;;;;;6.90;4.70;;;;;;;13.07;100.00;100842.23;105665;1254;59625;-42
2023/07/22 03:02:04;;;;;;;4.80;4.50;;;;;;;13.16;100.00;100842.55;105619;1260;73025;-42
2023/07/22 03:04:32;;;;;;;5.40;4.40;;;;;;;13.25;100.00;100843.02;105599;1254;63903;-42
2023/07/22 03:07:01;;;;;;;4.70;4.30;;;;;;;13.38;100.00;100844.99;105662;1254;71421;-42
2023/07/22 03:09:29;;;;;;;4.90;4.50;;;;;;;13.51;100.00;100844.04;105627;1256;60483;-42
2023/07/22 03:11:56;;;;;;;5.70;4.30;;;;;;;13.63;100.00;100840.95;105621;1257;60425;-42
2023/07/22 03:14:25;;;;;;;4.70;4.30;;;;;;;13.74;100.00;100842.06;105643;1260;73803;-42
2023/07/22 03:16:53;;;;;;;5.70;4.10;;;;;;;13.84;100.00;100842.52;105732;1258;62999;-42
2023/07/22 03:19:21;;;;;;;4.20;3.90;;;;;;;13.92;100.00;100834.99;105604;1257;71355;-42
2023/07/22 03:21:49;;;;;;;6.80;3.80;;;;;;;14.03;100.00;100832.64;105648;1257;60537;-42
2023/07/22 03:24:16;;;;;;;3.40;3.10;;;;;;;14.16;100.00;100829.70;105631;1254;60440;-43
2023/07/22 03:26:44;;;;;;;4.40;3.20;;;;;;;14.30;100.00;100828.78;105595;1254;72667;-41
2023/07/22 03:29:11;;;;;;;4.50;2.70;;;;;;;14.45;100.00;100827.52;105630;1260;63054;-41
2023/07/22 03:31:39;;;;;;;3.00;2.80;;;;;;;14.61;100.00;100825.30;105620;1257;71445;-41
2023/07/22 03:34:07;;;;;;;2.90;2.60;;;;;;;14.76;100.00;100825.06;105625;1259;60535;-42
2023/07/22 03:36:35;;;;;;;2.90;2.80;;;;;;;14.92;100.00;100823.89;105656;1259;60434;-42
2023/07/22 03:39:03;;;;;;;3.50;3.20;;;;;;;15.08;100.00;100828.25;105618;1255;71972;-42
2023/07/22 03:41:30;;;;;;;3.90;2.60;;;;;;;15.25;100.00;100824.95;105655;1260;63897;-42
2023/07/22 03:43:58;;;;;;;3.00;2.40;;;;;;;15.42;100.00;100825.11;105616;1258;71455;-42
2023/07/22 03:46:26;;;;;;;2.50;2.30;;;;;;;15.61;100.00;100829.89;105545;1260;60530;-42
2023/07/22 03:48:54;;;;;;;3.00;2.60;;;;;;;15.81;100.00;100837.20;105634;1254;60412;-42
2023/07/22 04:43:33;;;;;;;2.10;1.30;;;;;;;20.86;100.00;100399.45;102751;1291;600105;-42
2023/07/22 04:46:01;;;;;;;5.60;1.60;;;;;;;21.00;100.00;100364.40;105056;1268;59977;-42
2023/07/22 04:48:29;;;;;;;1.90;1.80;;;;;;;21.07;100.00;100324.42;105247;1260;59959;-42
2023/07/22 04:50:57;;;;;;;4.90;1.60;;;;;;;21.26;100.00;100326.39;105243;1260;71064;-43
2023/07/22 04:53:25;;;;;;;6.70;1.60;;;;;;;21.45;100.00;100329.34;105221;1260;65804;-43
2023/07/22 04:55:55;;;;;;;4.60;2.00;;;;;;;21.71;100.00;100332.61;105288;1263;71713;-42
2023/07/22 04:58:24;;;;;;;4.80;2.00;;;;;;;21.93;100.00;100352.53;105205;1260;271637;-42
2023/07/22 05:00:51;;;;;;;5.30;1.90;;;;;;;22.22;100.00;100361.67;105429;1262;59260;-42
2023/07/22 05:03:20;;;;;;;2.90;1.40;;;;;;;22.53;100.00;100393.81;105413;1260;70959;-42
2023/07/22 05:05:48;;;;;;;5.30;2.00;;;;;;;22.82;100.00;100432.23;105404;1260;63986;-43
2023/07/22 05:08:16;;;;;;;1.80;1.70;;;;;;;22.98;100.00;100490.64;105413;1259;72577;-42
2023/07/22 05:10:44;;;;;;;2.00;1.60;;;;;;;23.01;100.00;100527.70;105375;1259;59743;-45
2023/07/22 05:13:12;;;;;;;4.30;1.50;;;;;;;23.15;100.00;100543.13;105256;1262;61067;-41
2023/07/22 05:15:40;;;;;;;7.00;1.70;;;;;;;23.32;100.00;100553.39;105213;1262;71104;-42
2023/07/22 05:18:08;;;;;;;3.80;1.70;;;;;;;23.50;100.00;100565.46;105402;1262;64033;-43
2023/07/22 05:20:38;;;;;;;1.80;1.50;;;;;;;23.76;100.00;100579.55;105354;1262;71439;-42
2023/07/22 05:23:05;;;;;;;2.10;1.40;;;;;;;23.98;100.00;100591.86;105700;1259;59695;-42
2023/07/22 05:25:33;;;;;;;10.10;2.00;;;;;;;24.08;100.00;100609.79;105647;1255;59597;-42
2023/07/22 05:28:01;;;;;;;5.10;1.70;;;;;;;24.11;100.00;100627.06;105646;1253;71664;-42
2023/07/22 05:30:28;;;;;;;4.30;1.40;;;;;;;24.16;100.00;100639.27;105655;1254;64812;-42
2023/07/22 05:33:02;;;;;;;3.40;1.60;;;;;;;24.14;100.00;100655.77;105633;1253;71377;-42
2023/07/22 05:35:30;;;;;;;7.50;1.90;;;;;;;24.08;100.00;100661.45;105649;1259;59724;-42
2023/07/22 05:37:58;;;;;;;16.20;3.50;;;;;;;23.96;100.00;100655.11;105684;1258;59950;-42
2023/07/22 05:40:26;;;;;;;9.50;2.10;;;;;;;23.84;100.00;100664.20;105588;1254;73039;-42
2023/07/22 05:42:53;;;;;;;3.80;2.10;;;;;;;23.83;100.00;100650.02;105595;1256;64500;-42
2023/07/22 05:45:21;;;;;;;4.60;1.80;;;;;;;23.91;100.00;100649.14;105610;1256;71692;-42
2023/07/22 05:47:49;;;;;;;6.90;1.70;;;;;;;24.05;100.00;100650.91;105648;1257;59785;-42
2023/07/22 05:50:17;;;;;;;7.90;1.70;;;;;;;24.23;100.00;100659.86;105645;1260;59638;-42
2023/07/22 05:52:45;;;;;;;5.40;1.60;;;;;;;24.42;100.00;100666.64;105657;1256;72789;-42
2023/07/22 05:55:13;;;;;;;8.60;1.60;;;;;;;24.61;100.00;100671.18;105614;1257;65304;-42
2023/07/22 05:57:42;;;;;;;8.70;1.70;;;;;;;24.92;100.00;100672.98;105609;1256;72645;-42
2023/07/22 06:00:12;;;;;;;7.30;1.70;;;;;;;25.25;100.00;100672.63;105642;1256;59688;-42
2023/07/22 06:02:40;;;;;;;8.50;1.50;;;;;;;25.29;97.58;100668.77;105603;1261;59613;-42
2023/07/22 06:05:09;;;;;;;1.40;1.40;;;;;;;25.00;95.14;100693.36;105600;1256;73082;-42
2023/07/22 06:07:37;;;;;;;2.10;1.70;;;;;;;24.77;92.80;100691.76;105608;1261;65183;-43
2023/07/22 06:10:06;;;;;;;2.50;1.80;;;;;;;24.46;94.56;100714.09;105626;1256;71389;-42
2023/07/22 06:12:34;;;;;;;7.60;2.00;;;;;;;24.14;99.83;100731.88;105631;1256;60048;-43
2023/07/22 06:15:03;;;;;;;1.90;1.80;;;;;;;23.99;100.00;100728.71;105639;1260;59530;-43
2023/07/22 06:17:31;;;;;;;4.60;2.10;;;;;;;23.94;100.00;100715.98;105635;1256;73024;-43
2023/07/22 06:19:59;;;;;;;5.40;2.30;;;;;;;23.93;100.00;100695.84;105630;1262;65151;-42
2023/07/22 06:22:27;;;;;;;4.30;2.20;;;;;;;23.78;100.00;100698.30;105598;1262;71834;-42
2023/07/22 06:24:56;;;;;;;1.90;1.80;;;;;;;23.73;100.00;100692.80;105587;1257;59629;-43
2023/07/22 06:27:23;;;;;;;6.40;2.10;;;;;;;23.85;100.00;100685.27;105579;1260;59606;-43
2023/07/22 06:29:51;;;;;;;5.00;2.30;;;;;;;23.93;100.00;100681.02;105625;1258;73010;-45
2023/07/22 06:32:19;;;;;;;5.90;2.20;;;;;;;24.08;100.00;100690.35;105892;1253;64112;-46
2023/07/22 06:34:47;;;;;;;4.00;1.90;;;;;;;24.38;100.00;100675.22;105743;1254;71476;-42
2023/07/22 06:37:15;;;;;;;1.80;1.70;;;;;;;24.59;100.00;100672.62;105812;1258;59670;-42
2023/07/22 06:39:43;;;;;;;3.40;1.60;;;;;;;24.70;100.00;100673.17;105783;1253;60314;-43
2023/07/22 06:42:11;;;;;;;2.70;1.70;;;;;;;24.88;95.80;100658.80;105800;1259;72075;-43
2023/07/22 06:44:38;;;;;;;2.00;1.70;;;;;;;24.96;97.80;100677.80;105774;1253;64041;-43
2023/07/22 06:47:06;;;;;;;2.00;1.80;;;;;;;25.03;94.97;100667.45;105810;1257;71000;-42
2023/07/22 06:49:34;;;;;;;5.40;2.00;;;;;;;25.06;92.40;100666.82;105826;1254;59698;-42
2023/07/22 06:52:02;;;;;;;2.40;1.80;;;;;;;25.12;90.67;100669.17;105761;1255;59539;-42
2023/07/22 06:54:30;;;;;;;3.10;1.80;;;;;;;25.09;90.23;100664.65;105801;1253;72985;-43
2023/07/22 06:56:58;;;;;;;3.60;1.70;;;;;;;25.04;87.57;100661.37;105796;1252;64508;-42
2023/07/22 06:59:26;;;;;;;2.20;1.70;;;;;;;24.85;87.26;100673.52;105808;1259;72584;-42
2023/07/22 07:01:53;;;;;;;3.40;1.80;;;;;;;24.71;90.84;100689.01;105820;1253;59652;-42
2023/07/22 07:04:21;;;;;;;10.00;1.90;;;;;;;24.73;96.96;100698.05;105802;1258;59624;-42
2023/07/22 07:06:50;;;;;;;4.70;2.00;;;;;;;24.87;100.00;100699.86;105763;1253;71798;-43
2023/07/22 07:09:17;;;;;;;6.80;1.90;;;;;;;25.08;100.00;100681.65;105798;1259;65663;-43
2023/07/22 07:11:45;;;;;;;7.80;2.10;;;;;;;25.32;93.36;100656.70;105786;1258;70870;-42
2023/07/22 07:14:13;;;;;;;12.60;2.20;;;;;;;25.39;83.78;100654.58;105781;1254;59641;-43
2023/07/22 07:16:40;;;;;;;7.40;1.60;;;;;;;25.53;87.88;100689.90;105756;1254;59590;-43
2023/07/22 07:19:08;;;;;;;4.50;2.10;;;;;;;25.70;85.85;100677.64;105798;1253;71758;-43
2023/07/22 07:21:36;;;;;;;13.80;3.60;;;;;;;25.86;78.70;100627.80;105785;1253;63913;-43
2023/07/22 07:24:04;;;;;;;9.60;2.80;;;;;;;26.01;75.72;100636.63;105768;1253;71374;-44
2023/07/22 07:26:32;;;;;;;11.10;2.70;;;;;;;26.24;72.69;100607.21;105806;1257;60035;-42
2023/07/22 07:28:59;;;;;;;19.00;2.40;;;;;;;26.38;68.05;100541.20;105805;1257;60014;-42
2023/07/22 07:31:27;;;;;;;4.60;2.00;;;;;;;26.52;65.99;100534.94;105835;1253;71821;-44
2023/07/22 07:33:58;;;;;;;12.00;1.60;;;;;;;26.65;66.11;100567.08;105640;1257;63879;-42
2023/07/22 07:36:25;;;;;;;17.70;2.40;;;;;;;26.85;65.80;100573.52;105733;1253;72673;-45
2023/07/22 07:38:53;;;;;;;22.80;3.10;;;;;;;27.02;66.92;100611.43;105811;1257;59644;-43
2023/07/22 07:41:21;;;;;;;5.50;2.10;;;;;;;27.22;65.23;100562.73;105733;1254;60085;-43
2023/07/22 07:43:49;;;;;;;16.70;2.40;;;;;;;27.34;64.34;100544.34;105808;1259;71793;-43
2023/07/22 07:46:25;;;;;;;6.90;2.00;;;;;;;27.44;64.88;100579.44;105782;1253;63773;-46
2023/07/22 07:48:55;;;;;;;3.10;2.10;;;;;;;27.54;60.65;100441.45;105814;1258;71538;-41
2023/07/22 07:51:24;;;;;;;5.40;1.80;;;;;;;27.32;59.53;100437.38;105859;1253;60486;-42
2023/07/22 07:53:52;;;;;;;11.80;1.90;;;;;;;27.11;59.95;100491.49;105855;1257;59702;-42
2023/07/22 07:56:20;;;;;;;2.60;1.70;;;;;;;26.95;59.77;100496.65;105833;1253;73038;-44
2023/07/22 07:58:49;;;;;;;4.30;2.20;;;;;;;26.64;59.33;100511.59;105797;1259;64060;-43
2023/07/22 08:01:17;;;;;;;8.00;1.90;;;;;;;26.22;59.50;100546.00;105805;1254;72003;-42
2023/07/22 08:03:45;;;;;;;6.40;1.90;;;;;;;25.81;60.87;100619.17;105883;1253;59768;-42
2023/07/22 08:06:13;;;;;;;3.60;1.40;;;;;;;25.57;61.93;100660.65;105817;1259;59716;-43
2023/07/22 08:08:44;;;;;;;6.40;1.60;;;;;;;25.45;61.25;100644.23;105774;1257;72251;-44
2023/07/22 08:11:13;;;;;;;1.90;1.60;;;;;;;25.46;61.00;100629.00;105796;1253;64408;-42
2023/07/22 08:13:42;;;;;;;2.20;1.40;;;;;;;25.44;61.49;100643.25;105840;1267;72738;-42
2023/07/22 08:16:11;;;;;;;3.50;1.30;;;;;;;25.46;61.64;100644.84;105837;1253;59644;-42
2023/07/22 08:18:40;;;;;;;7.60;1.60;;;;;;;25.66;62.35;100667.70;105844;1257;60066;-43
2023/07/22 08:21:07;;;;;;;6.40;2.10;;;;;;;25.94;62.19;100656.11;105792;1252;72965;-43
2023/07/22 08:23:36;;;;;;;3.80;1.50;;;;;;;26.22;60.44;100592.89;105801;1257;63920;-43
2023/07/22 08:26:07;;;;;;;3.50;1.30;;;;;;;26.50;60.18;100579.27;105854;1253;71814;-44
2023/07/22 08:28:35;;;;;;;4.70;1.60;;;;;;;26.84;59.35;100545.12;105756;1258;60024;-43
2023/07/22 08:31:03;;;;;;;4.00;1.30;;;;;;;26.99;58.98;100542.27;105799;1257;59544;-45
2023/07/22 08:33:31;;;;;;;3.00;1.90;;;;;;;27.01;57.60;100490.95;105786;1254;73104;-44
2023/07/22 08:36:02;;;;;;;2.80;1.40;;;;;;;26.84;56.73;100469.89;105770;1254;65251;-43
2023/07/22 08:38:30;;;;;;;18.20;2.20;;;;;;;26.68;57.98;100565.73;105866;1258;72605;-45
2023/07/22 08:40:58;;;;;;;5.60;1.60;;;;;;;26.69;57.35;100515.56;105830;1254;59714;-43
2023/07/22 08:43:28;;;;;;;1.40;1.30;;;;;;;26.77;57.83;100552.73;105821;1259;59531;-43
2023/07/22 08:45:59;;;;;;;1.80;1.30;;;;;;;26.82;57.41;100532.20;105816;1257;71807;-43
2023/07/22 08:48:35;;;;;;;2.40;1.40;;;;;;;26.85;56.75;100509.09;105825;1255;63933;-43
2023/07/22 08:51:16;;;;;;;;;;;;;;;26.82;57.79;100582.08;105838;1259;72440;-42
2023/07/22 08:53:45;;;;;;;2.50;1.20;;;;;;;26.75;57.33;100557.23;105828;1256;60553;-46
2023/07/22 08:56:25;;;;;;;6.70;1.00;;;;;;;26.52;56.10;100500.39;105658;1259;60448;-44
2023/07/22 08:58:53;;;;;;;2.60;1.40;;;;;;;26.27;56.65;100542.14;105838;1257;73827;-43
2023/07/22 09:01:22;;;;;;;2.30;1.20;;;;;;;26.12;57.62;100616.67;105898;1251;63999;-43
2023/07/22 09:03:52;;;;;;;5.80;1.30;;;;;;;26.03;57.93;100625.79;105884;1257;71459;-42
2023/07/22 09:06:20;;;;;;;1.80;1.20;;;;;;;25.92;57.21;100582.65;105744;1259;60856;-43
2023/07/22 09:08:49;;;;;;;3.80;1.20;;;;;;;25.77;58.26;100646.87;105857;1258;60432;-44
2023/07/22 09:11:16;;;;;;;1.80;1.00;;;;;;;25.64;59.30;100682.87;105715;1259;73891;-43
2023/07/22 09:13:45;;;;;;;1.90;1.00;;;;;;;25.57;58.83;100658.16;105876;1257;65284;-43
2023/07/22 09:16:13;;;;;;;1.30;1.20;;;;;;;25.53;59.07;100664.69;105856;1254;71423;-42
2023/07/22 09:18:41;;;;;;;1.70;1.20;;;;;;;25.46;59.75;100687.97;105867;1257;60425;-42
2023/07/22 09:21:09;;;;;;;6.00;1.20;;;;;;;25.39;60.17;100690.63;105846;1256;60367;-42
2023/07/22 09:23:37;;;;;;;1.60;1.30;;;;;;;25.31;60.06;100682.91;105853;1253;72636;-43
2023/07/22 09:26:13;;;;;;;1.90;1.20;;;;;;;25.23;60.55;100694.00;105897;1256;64023;-42
2023/07/22 09:28:51;;;;;;;4.60;1.60;;;;;;;25.06;61.25;100713.05;105857;1254;71468;-42
2023/07/22 09:31:26;;;;;;;8.10;1.70;;;;;;;24.92;62.14;100734.60;105861;1256;60591;-42
2023/07/22 09:33:54;;;;;;;1.80;1.50;;;;;;;24.82;63.36;100752.08;105892;1259;60522;-44
2023/07/22 09:36:22;;;;;;;1.50;1.40;;;;;;;24.74;63.82;100745.42;105857;1251;72813;-42
2023/07/22 09:39:02;;;;;;;4.60;1.70;;;;;;;24.60;64.53;100757.91;105928;1260;63999;-42
2023/07/22 09:41:31;;;;;;;3.40;1.70;;;;;;;24.45;65.61;100767.48;105934;1257;72589;-42
2023/07/22 09:44:02;;;;;;;4.80;2.20;;;;;;;24.33;66.54;100761.89;105874;1255;60444;-42
2023/07/22 09:46:33;;;;;;;4.70;1.70;;;;;;;24.28;68.52;100773.02;105940;1258;60467;-46
2023/07/22 09:49:04;;;;;;;3.00;1.80;;;;;;;24.25;71.55;100770.79;105786;1254;72563;-42
2023/07/22 09:51:36;;;;;;;1.50;1.40;;;;;;;24.27;73.73;100754.45;105692;1258;63978;-47
2023/07/22 09:54:15;;;;;;;3.30;1.60;;;;;;;24.26;75.33;100743.39;105884;1254;72467;-43
2023/07/22 09:56:48;;;;;;;2.90;1.60;;;;;;;24.23;75.23;100729.48;105895;1253;60537;-44
2023/07/22 09:59:22;;;;;;;4.20;1.70;;;;;;;24.20;73.85;100717.58;105895;1256;60328;-43
2023/07/22 10:01:51;;;;;;;5.30;1.70;;;;;;;24.19;75.79;100723.11;105703;1254;72681;-42
2023/07/22 10:04:19;;;;;;;4.30;1.60;;;;;;;24.22;78.92;100728.73;105900;1253;64280;-42
2023/07/22 10:06:47;;;;;;;8.50;2.00;;;;;;;24.28;81.36;100728.77;105644;1256;72666;-42
2023/07/22 10:09:14;;;;;;;2.40;2.20;;;;;;;24.35;81.58;100714.34;105861;1264;60537;-43
2023/07/22 10:11:42;;;;;;;4.90;2.10;;;;;;;24.40;82.46;100713.98;105701;1259;60320;-45
2023/07/22 10:14:12;;;;;;;6.30;2.10;;;;;;;24.46;84.52;100704.95;105680;1257;72596;-46
2023/07/22 10:16:40;;;;;;;10.20;2.00;;;;;;;24.52;85.24;100698.17;105866;1257;64055;-45
2023/07/22 10:19:08;;;;;;;11.00;2.30;;;;;;;24.53;75.17;100659.13;105700;1258;71829;-42
2023/07/22 10:21:36;;;;;;;3.70;1.40;;;;;;;24.48;72.63;100662.49;105821;1254;60411;-48
2023/07/22 10:24:04;;;;;;;10.10;1.70;;;;;;;24.39;72.50;100673.36;105722;1259;60424;-45
2023/07/22 10:26:32;;;;;;;12.30;2.00;;;;;;;24.35;74.37;100686.67;105866;1254;73793;-46
2023/07/22 10:29:14;;;;;;;21.60;3.00;;;;;;;24.34;77.33;100691.70;105878;1251;64029;-46
2023/07/22 10:31:42;;;;;;;36.80;3.70;;;;;;;24.33;74.44;100665.12;105838;1257;71387;-43
2023/07/22 10:34:10;;;;;;;33.70;3.40;;;;;;;24.33;75.00;100673.05;105909;1257;60397;-43
2023/07/22 10:36:38;;;;;;;40.10;4.80;;;;;;;24.33;80.89;100691.59;105907;1257;60324;-43
2023/07/22 10:39:06;;;;;;;31.90;3.90;;;;;;;24.33;84.17;100680.27;105896;1258;72633;-43
2023/07/22 10:41:34;;;;;;;33.60;4.20;;;;;;;24.32;87.50;100677.93;105883;1254;63938;-43
2023/07/22 10:44:02;;;;;;;33.50;4.10;;;;;;;24.28;87.80;100666.59;105729;1258;72639;-43
2023/07/22 10:46:34;;;;;;;22.60;4.50;;;;;;;24.24;96.37;100669.67;105867;1257;60511;-43
2023/07/22 10:49:16;;;;;;;29.40;4.20;;;;;;;24.18;100.00;100657.95;105872;1256;60496;-41
2023/07/22 10:51:49;;;;;;;28.90;4.00;;;;;;;24.11;100.00;100648.21;105868;1256;72548;-42
2023/07/22 10:54:35;;;;;;;31.00;4.80;;;;;;;24.06;100.00;100628.29;105886;1251;63895;-42
2023/07/22 10:57:16;;;;;;;23.00;4.90;;;;;;;24.04;100.00;100615.40;105879;1256;72629;-42
2023/07/22 10:59:50;;;;;;;37.00;4.70;;;;;;;24.03;100.00;100580.21;105870;1256;61768;-42
2023/07/22 11:02:25;;;;;;;33.20;5.00;;;;;;;24.04;100.00;100554.61;105862;1257;60335;-43
2023/07/22 11:04:56;;;;;;;50.40;6.60;;;;;;;24.04;100.00;100542.82;105906;1266;73815;-42
2023/07/22 11:07:31;;;;;;;58.40;5.70;;;;;;;23.96;100.00;100546.15;105911;1257;63947;-42
2023/07/22 11:10:18;;;;;;;56.60;7.70;;;;;;;23.91;100.00;100537.74;105846;1254;71335;-42
2023/07/22 11:12:48;;;;;;;50.60;6.30;;;;;;;23.91;100.00;100535.08;105917;1258;60476;-42
2023/07/22 11:17:56;;;;;;;13.50;3.00;;;;;;;23.83;100.00;100521.18;102684;1290;600278;-43
2023/07/22 11:20:24;;;;;;;6.20;2.50;;;;;;;23.67;100.00;100527.29;104994;1267;61645;-43
2023/07/22 11:22:53;;;;;;;13.60;3.40;;;;;;;23.59;100.00;100499.40;105042;1269;59689;-44
2023/07/22 11:25:21;;;;;;;27.50;4.30;;;;;;;23.50;100.00;100468.27;104991;1266;72207;-42
2023/07/22 11:27:49;;;;;;;28.10;5.50;;;;;;;23.41;100.00;100430.60;105046;1267;63982;-42
2023/07/22 11:30:17;;;;;;;26.60;6.00;;;;;;;23.33;100.00;100393.46;104998;1268;71440;-42
2023/07/22 11:32:45;;;;;;;22.70;5.10;;;;;;;23.24;100.00;100342.55;105026;1266;228126;-42
2023/07/22 11:35:19;;;;;;;11.60;3.20;;;;;;;23.04;100.00;100315.64;105588;1257;60230;-42
2023/07/22 11:37:46;;;;;;;9.40;2.70;;;;;;;22.80;100.00;100307.53;105631;1260;72223;-42
2023/07/22 11:40:14;;;;;;;5.20;2.80;;;;;;;22.54;100.00;100307.27;105604;1257;63886;-43
2023/07/22 11:42:44;;;;;;;5.90;2.30;;;;;;;22.37;100.00;100320.20;105675;1256;72637;-43
2023/07/22 11:45:12;;;;;;;7.50;2.40;;;;;;;22.29;100.00;100336.20;105578;1257;61639;-43
2023/07/22 11:47:40;;;;;;;1.90;1.60;;;;;;;22.22;100.00;100347.43;105667;1256;59622;-43
2023/07/22 11:50:08;;;;;;;3.10;1.90;;;;;;;22.11;100.00;100339.56;105612;1256;71721;-43
2023/07/22 11:52:36;;;;;;;4.80;1.90;;;;;;;21.99;100.00;100346.00;105615;1256;65390;-43
2023/07/22 11:55:05;;;;;;;4.10;2.00;;;;;;;21.85;100.00;100342.74;105628;1258;71421;-43
2023/07/22 11:57:33;;;;;;;3.10;2.10;;;;;;;21.73;100.00;100379.18;105625;1257;60454;-43
2023/07/22 12:00:02;;;;;;;4.50;2.00;;;;;;;21.59;100.00;100431.52;105652;1260;59720;-43
2023/07/22 12:02:35;;;;;;;3.40;2.60;;;;;;;21.44;100.00;100451.44;105632;1257;72060;-45
2023/07/22 12:05:05;;;;;;;2.90;2.60;;;;;;;21.29;100.00;100473.25;105298;1263;63910;-43
2023/07/22 12:07:37;;;;;;;9.90;2.70;;;;;;;21.19;100.00;100480.89;105593;1257;72646;-47
2023/07/22 12:10:07;;;;;;;4.20;3.00;;;;;;;21.13;100.00;100571.95;105638;1257;60835;-42
2023/07/22 12:12:36;;;;;;;5.30;2.90;;;;;;;21.06;100.00;100684.62;105608;1260;59653;-43
2023/07/22 12:15:13;;;;;;;4.60;3.50;;;;;;;20.95;100.00;100759.11;105637;1260;73025;-43